createdAt,value
2023-02-28T00:01:22.122Z,25.56
2023-02-28T00:03:22.148Z,25.56
2023-02-28T00:05:22.192Z,25.55
2023-02-28T00:07:22.205Z,25.61
2023-02-28T00:09:22.200Z,25.52
2023-02-28T00:11:22.236Z,25.56
2023-02-28T00:13:22.241Z,25.57
2023-02-28T00:15:22.223Z,25.57
2023-02-28T00:17:21.963Z,25.57
2023-02-28T00:19:22.155Z,25.52
2023-02-28T00:21:22.006Z,25.56
2023-02-28T00:23:22.174Z,25.54
2023-02-28T00:25:22.067Z,25.54
2023-02-28T00:27:21.984Z,25.56
2023-02-28T00:29:22.195Z,25.60
2023-02-28T00:31:21.990Z,25.55
2023-02-28T00:33:22.186Z,25.64
2023-02-28T00:35:22.297Z,25.54
2023-02-28T00:37:22.180Z,25.52
2023-02-28T00:39:22.223Z,25.60
2023-02-28T00:41:22.207Z,25.60
2023-02-28T00:43:22.181Z,25.57
2023-02-28T00:45:22.245Z,25.52
2023-02-28T00:47:22.244Z,25.55
2023-02-28T00:49:22.025Z,25.53
2023-02-28T00:51:22.213Z,25.54
2023-02-28T00:53:22.021Z,25.56
2023-02-28T00:55:22.254Z,25.58
2023-02-28T00:57:22.276Z,25.52
2023-02-28T00:59:22.205Z,25.58
2023-02-28T01:01:22.292Z,25.52
2023-02-28T01:03:21.975Z,25.53
2023-02-28T01:05:22.100Z,25.63
2023-02-28T01:07:22.193Z,25.54
2023-02-28T01:09:22.279Z,25.54
2023-02-28T01:11:22.188Z,25.52
2023-02-28T01:13:22.260Z,25.56
2023-02-28T01:15:22.109Z,25.60
2023-02-28T01:17:22.291Z,25.54
2023-02-28T01:19:22.272Z,25.54
2023-02-28T01:21:22.288Z,25.56
2023-02-28T01:23:22.084Z,25.60
2023-02-28T01:25:22.332Z,25.65
2023-02-28T01:27:22.303Z,25.60
2023-02-28T01:29:22.300Z,25.57
2023-02-28T01:31:22.279Z,25.51
2023-02-28T01:33:22.291Z,25.52
2023-02-28T01:35:22.078Z,25.53
2023-02-28T01:37:22.293Z,25.54
2023-02-28T01:39:22.066Z,25.57
2023-02-28T01:41:22.059Z,25.57
2023-02-28T01:43:22.309Z,25.60
2023-02-28T01:45:22.291Z,25.56
2023-02-28T01:47:22.021Z,25.54
2023-02-28T01:49:22.187Z,25.58
2023-02-28T01:51:22.284Z,25.52
2023-02-28T01:53:22.315Z,25.57
2023-02-28T01:55:22.264Z,25.54
2023-02-28T01:57:22.153Z,25.54
2023-02-28T01:59:22.152Z,25.58
2023-02-28T02:01:22.231Z,25.52
2023-02-28T02:03:22.109Z,25.62
2023-02-28T02:05:22.233Z,25.53
2023-02-28T02:07:22.286Z,25.54
2023-02-28T02:09:22.374Z,25.54
2023-02-28T02:11:22.117Z,25.59
2023-02-28T02:13:22.224Z,25.64
2023-02-28T02:15:22.287Z,25.60
2023-02-28T02:17:22.253Z,25.53
2023-02-28T02:19:22.234Z,25.57
2023-02-28T02:21:22.142Z,25.65
2023-02-28T02:23:22.200Z,25.53
2023-02-28T02:25:22.180Z,25.57
2023-02-28T02:27:22.283Z,25.52
2023-02-28T02:29:22.311Z,25.53
2023-02-28T02:31:22.281Z,25.60
2023-02-28T02:33:22.335Z,25.54
2023-02-28T02:35:22.324Z,25.55
2023-02-28T02:37:22.176Z,25.52
2023-02-28T02:39:22.350Z,25.56
2023-02-28T02:41:22.370Z,25.63
2023-02-28T02:43:22.361Z,25.26
2023-02-28T02:45:22.355Z,25.53
2023-02-28T02:47:22.364Z,25.52
2023-02-28T02:49:22.338Z,25.57
2023-02-28T02:51:22.150Z,25.57
2023-02-28T02:53:22.407Z,25.52
2023-02-28T02:55:22.313Z,25.65
2023-02-28T02:57:22.354Z,25.57
2023-02-28T02:59:22.530Z,25.53
2023-02-28T03:01:22.444Z,24.52
2023-02-28T03:03:22.334Z,24.30
2023-02-28T03:05:22.318Z,24.11
2023-02-28T03:07:22.208Z,24.05
2023-02-28T03:09:22.444Z,24.01
2023-02-28T03:11:22.242Z,24.01
2023-02-28T03:13:22.396Z,23.98
2023-02-28T03:15:22.398Z,23.93
2023-02-28T03:17:22.112Z,23.86
2023-02-28T03:19:22.242Z,23.83
2023-02-28T03:21:22.206Z,23.86
2023-02-28T03:23:22.411Z,23.82
2023-02-28T03:25:22.360Z,23.81
2023-02-28T03:27:22.171Z,23.83
2023-02-28T03:29:22.160Z,23.81
2023-02-28T03:31:22.309Z,23.77
2023-02-28T03:33:22.260Z,23.81
2023-02-28T03:35:22.593Z,23.77
2023-02-28T03:37:22.446Z,23.81
2023-02-28T03:39:22.445Z,23.81
2023-02-28T03:41:22.416Z,23.84
2023-02-28T03:43:22.355Z,23.78
2023-02-28T03:45:22.491Z,23.73
2023-02-28T03:47:22.401Z,23.73
2023-02-28T03:49:22.258Z,23.81
2023-02-28T03:51:22.216Z,23.73
2023-02-28T03:53:22.223Z,23.80
2023-02-28T03:55:22.483Z,23.81
2023-02-28T03:57:22.344Z,23.70
2023-02-28T03:59:22.465Z,23.70
2023-02-28T04:01:22.457Z,23.73
2023-02-28T04:03:22.378Z,23.78
2023-02-28T04:05:22.455Z,23.68
2023-02-28T04:07:22.412Z,23.72
2023-02-28T04:09:22.365Z,23.57
2023-02-28T04:11:22.384Z,23.73
2023-02-28T04:13:22.186Z,23.50
2023-02-28T04:15:22.404Z,23.65
2023-02-28T04:17:22.371Z,23.76
2023-02-28T04:19:22.468Z,23.62
2023-02-28T04:21:22.456Z,23.65
2023-02-28T04:23:22.373Z,23.66
2023-02-28T04:25:22.528Z,23.65
2023-02-28T04:27:22.222Z,23.66
2023-02-28T04:29:22.444Z,23.59
2023-02-28T04:31:22.478Z,23.53
2023-02-28T04:33:22.454Z,23.57
2023-02-28T04:35:22.533Z,23.49
2023-02-28T04:37:22.437Z,23.53
2023-02-28T04:39:22.460Z,23.44
2023-02-28T04:41:22.508Z,23.53
2023-02-28T04:43:22.594Z,23.39
2023-02-28T04:45:22.463Z,23.34
2023-02-28T04:47:22.540Z,23.44
2023-02-28T04:49:22.470Z,23.53
2023-02-28T04:51:22.499Z,23.38
2023-02-28T04:53:22.298Z,23.45
2023-02-28T04:55:22.491Z,23.45
2023-02-28T04:57:22.489Z,23.40
2023-02-28T04:59:22.461Z,23.45
2023-02-28T05:01:22.314Z,23.25
2023-02-28T05:03:22.479Z,23.12
2023-02-28T05:05:22.290Z,23.24
2023-02-28T05:07:22.507Z,22.98
2023-02-28T05:09:22.504Z,23.23
2023-02-28T05:11:22.553Z,23.19
2023-02-28T05:13:22.285Z,23.08
2023-02-28T05:15:22.421Z,23.18
2023-02-28T05:17:22.246Z,23.20
2023-02-28T05:19:22.488Z,23.01
2023-02-28T05:21:22.323Z,23.11
2023-02-28T05:23:22.457Z,22.85
2023-02-28T05:25:22.432Z,23.01
2023-02-28T05:27:22.472Z,23.06
2023-02-28T05:29:22.362Z,22.99
2023-02-28T05:31:22.502Z,23.25
2023-02-28T05:33:22.516Z,23.27
2023-02-28T05:35:22.665Z,23.24
2023-02-28T05:37:22.821Z,23.31
2023-02-28T05:39:22.344Z,23.25
2023-02-28T05:41:22.502Z,23.24
2023-02-28T05:43:22.300Z,23.22
2023-02-28T05:45:22.551Z,23.24
2023-02-28T05:47:22.548Z,23.26
2023-02-28T05:49:22.310Z,23.30
2023-02-28T05:51:22.409Z,23.19
2023-02-28T05:53:22.562Z,23.23
2023-02-28T05:55:22.273Z,23.25
2023-02-28T05:57:24.553Z,23.21
2023-02-28T05:59:22.304Z,23.18
2023-02-28T06:01:22.425Z,23.18
2023-02-28T06:03:22.640Z,23.15
2023-02-28T06:05:22.300Z,23.25
2023-02-28T06:07:22.630Z,23.17
2023-02-28T06:09:22.302Z,23.19
2023-02-28T06:11:22.579Z,23.22
2023-02-28T06:13:22.577Z,23.17
2023-02-28T06:15:22.569Z,23.17
2023-02-28T06:17:22.500Z,23.26
2023-02-28T06:19:22.413Z,22.99
2023-02-28T06:21:22.328Z,23.20
2023-02-28T06:23:22.556Z,23.26
2023-02-28T06:25:22.594Z,23.22
2023-02-28T06:27:22.610Z,23.31
2023-02-28T06:29:22.606Z,23.16
2023-02-28T06:31:22.682Z,23.25
2023-02-28T06:33:22.608Z,23.23
2023-02-28T06:35:22.709Z,23.24
2023-02-28T06:37:22.588Z,23.34
2023-02-28T06:39:22.588Z,23.20
2023-02-28T06:41:22.596Z,23.26
2023-02-28T06:43:22.618Z,23.23
2023-02-28T06:45:22.619Z,23.27
2023-02-28T06:47:22.357Z,23.34
2023-02-28T06:49:22.616Z,23.29
2023-02-28T06:51:22.601Z,23.25
2023-02-28T06:53:22.395Z,23.36
2023-02-28T06:55:22.608Z,23.29
2023-02-28T06:57:22.617Z,23.39
2023-02-28T06:59:22.633Z,23.37
2023-02-28T07:01:22.676Z,23.31
2023-02-28T07:03:22.664Z,23.41
2023-02-28T07:05:22.661Z,23.37
2023-02-28T07:07:22.565Z,23.37
2023-02-28T07:09:22.584Z,23.39
2023-02-28T07:11:22.617Z,23.39
2023-02-28T07:13:22.636Z,23.50
2023-02-28T07:15:22.688Z,23.49
2023-02-28T07:17:22.632Z,23.53
2023-02-28T07:19:22.603Z,23.56
2023-02-28T07:21:22.399Z,23.58
2023-02-28T07:23:22.322Z,23.61
2023-02-28T07:25:22.469Z,23.57
2023-02-28T07:27:22.595Z,23.66
2023-02-28T07:29:22.627Z,23.73
2023-02-28T07:31:22.735Z,23.66
2023-02-28T07:33:22.633Z,23.79
2023-02-28T07:35:22.738Z,23.79
2023-02-28T07:37:22.470Z,23.84
2023-02-28T07:39:22.654Z,23.82
2023-02-28T07:41:22.645Z,23.94
2023-02-28T07:43:22.447Z,23.68
2023-02-28T07:45:22.692Z,24.05
2023-02-28T07:47:24.526Z,24.02
2023-02-28T07:49:22.684Z,24.07
2023-02-28T07:51:22.602Z,24.15
2023-02-28T07:53:22.641Z,24.24
2023-02-28T07:55:22.436Z,24.21
2023-02-28T07:57:22.689Z,24.37
2023-02-28T07:59:22.485Z,24.37
2023-02-28T08:01:22.524Z,24.38
2023-02-28T08:03:22.510Z,24.41
2023-02-28T08:05:22.832Z,24.52
2023-02-28T08:07:22.717Z,24.51
2023-02-28T08:09:22.638Z,24.59
2023-02-28T08:11:22.695Z,24.60
2023-02-28T08:13:22.535Z,24.65
2023-02-28T08:15:22.472Z,24.76
2023-02-28T08:17:22.703Z,24.82
2023-02-28T08:19:22.715Z,24.95
2023-02-28T08:21:22.738Z,25.16
2023-02-28T08:23:22.428Z,25.18
2023-02-28T08:25:22.755Z,25.32
2023-02-28T08:27:22.571Z,25.44
2023-02-28T08:29:22.760Z,25.74
2023-02-28T08:31:22.489Z,25.80
2023-02-28T08:33:22.736Z,25.97
2023-02-28T08:35:22.618Z,26.04
2023-02-28T08:37:22.746Z,26.27
2023-02-28T08:39:22.528Z,26.52
2023-02-28T08:41:22.443Z,25.03
2023-02-28T08:43:22.752Z,25.05
2023-02-28T08:45:22.517Z,25.05
2023-02-28T08:47:22.720Z,25.08
2023-02-28T08:49:22.765Z,25.11
2023-02-28T08:51:22.726Z,25.10
2023-02-28T08:53:22.734Z,25.12
2023-02-28T08:55:22.718Z,25.14
2023-02-28T08:57:22.773Z,25.15
2023-02-28T08:59:22.688Z,25.15
2023-02-28T09:01:22.755Z,25.06
2023-02-28T09:03:24.282Z,25.07
2023-02-28T09:05:22.529Z,25.09
2023-02-28T09:07:22.767Z,25.13
2023-02-28T09:09:22.763Z,25.07
2023-02-28T09:11:22.783Z,25.09
2023-02-28T09:13:22.701Z,25.08
2023-02-28T09:15:22.738Z,25.11
2023-02-28T09:17:22.792Z,25.13
2023-02-28T09:19:22.798Z,25.13
2023-02-28T09:21:22.558Z,25.21
2023-02-28T09:23:22.518Z,25.23
2023-02-28T09:25:22.783Z,25.21
2023-02-28T09:27:22.629Z,25.23
2023-02-28T09:29:22.754Z,25.04
2023-02-28T09:31:22.744Z,26.89
2023-02-28T09:33:22.788Z,25.08
2023-02-28T09:35:22.814Z,25.23
2023-02-28T09:37:22.716Z,25.11
2023-02-28T09:39:22.497Z,25.23
2023-02-28T09:41:22.788Z,25.23
2023-02-28T09:43:22.778Z,25.37
2023-02-28T09:45:22.745Z,25.32
2023-02-28T09:47:22.559Z,25.24
2023-02-28T09:49:22.832Z,25.31
2023-02-28T09:51:22.834Z,26.84
2023-02-28T09:53:22.752Z,25.18
2023-02-28T09:55:22.838Z,26.91
2023-02-28T09:57:22.794Z,25.15
2023-02-28T09:59:22.761Z,25.64
2023-02-28T10:01:22.823Z,26.85
2023-02-28T10:03:22.886Z,25.13
2023-02-28T10:05:22.748Z,25.19
2023-02-28T10:07:22.757Z,25.18
2023-02-28T10:09:22.615Z,25.23
2023-02-28T10:11:22.682Z,25.23
2023-02-28T10:13:22.815Z,25.26
2023-02-28T10:15:22.827Z,25.35
2023-02-28T10:17:22.761Z,25.25
2023-02-28T10:19:22.835Z,25.22
2023-02-28T10:21:22.777Z,26.96
2023-02-28T10:23:22.794Z,25.18
2023-02-28T10:25:22.811Z,25.10
2023-02-28T10:27:22.841Z,26.94
2023-02-28T10:29:22.621Z,25.35
2023-02-28T10:31:24.747Z,25.08
2023-02-28T10:33:22.850Z,25.09
2023-02-28T10:35:22.870Z,25.10
2023-02-28T10:37:22.836Z,25.29
2023-02-28T10:39:22.846Z,25.29
2023-02-28T10:41:22.855Z,25.24
2023-02-28T10:43:22.860Z,25.29
2023-02-28T10:45:22.859Z,26.90
2023-02-28T10:47:22.819Z,26.93
2023-02-28T10:49:22.862Z,25.13
2023-02-28T10:51:22.614Z,26.92
2023-02-28T10:53:22.835Z,25.13
2023-02-28T10:55:22.690Z,25.13
2023-02-28T10:57:22.787Z,25.08
2023-02-28T10:59:22.895Z,25.17
2023-02-28T11:01:22.914Z,27.06
2023-02-28T11:03:22.880Z,25.15
2023-02-28T11:05:22.840Z,25.23
2023-02-28T11:07:24.333Z,25.21
2023-02-28T11:09:22.861Z,25.10
2023-02-28T11:11:22.838Z,25.26
2023-02-28T11:13:22.834Z,25.37
2023-02-28T11:15:22.861Z,27.03
2023-02-28T11:17:22.893Z,26.88
2023-02-28T11:19:22.765Z,26.42
2023-02-28T11:21:22.892Z,25.08
2023-02-28T11:23:22.897Z,25.22
2023-02-28T11:25:22.631Z,25.26
2023-02-28T11:27:22.660Z,25.13
2023-02-28T11:29:22.693Z,25.13
2023-02-28T11:31:22.913Z,25.25
2023-02-28T11:33:22.908Z,25.08
2023-02-28T11:35:22.754Z,26.64
2023-02-28T11:37:22.909Z,27.02
2023-02-28T11:39:22.866Z,25.10
2023-02-28T11:41:22.903Z,25.09
2023-02-28T11:43:22.758Z,25.18
2023-02-28T11:45:22.913Z,25.08
2023-02-28T11:47:22.942Z,25.65
2023-02-28T11:49:22.903Z,25.09
2023-02-28T11:51:22.899Z,25.15
2023-02-28T11:53:22.958Z,25.21
2023-02-28T11:55:22.907Z,25.24
2023-02-28T11:57:22.692Z,26.94
2023-02-28T11:59:22.933Z,25.45
2023-02-28T12:01:23.021Z,26.77
2023-02-28T12:03:22.964Z,25.17
2023-02-28T12:05:22.890Z,25.13
2023-02-28T12:07:22.966Z,25.26
2023-02-28T12:09:22.941Z,25.17
2023-02-28T12:11:22.981Z,25.22
2023-02-28T12:13:22.912Z,25.09
2023-02-28T12:15:22.972Z,25.15
2023-02-28T12:17:22.976Z,25.24
2023-02-28T12:19:22.995Z,25.25
2023-02-28T12:21:22.764Z,26.37
2023-02-28T12:23:22.982Z,25.42
2023-02-28T12:25:22.984Z,25.19
2023-02-28T12:27:24.395Z,26.71
2023-02-28T12:29:22.900Z,27.00
2023-02-28T12:31:22.877Z,25.06
2023-02-28T12:33:22.768Z,25.09
2023-02-28T12:35:23.029Z,25.11
2023-02-28T12:37:22.991Z,25.10
2023-02-28T12:39:24.102Z,25.15
2023-02-28T12:41:22.972Z,25.17
2023-02-28T12:43:23.005Z,25.21
2023-02-28T12:45:22.893Z,25.26
2023-02-28T12:47:23.002Z,26.93
2023-02-28T12:49:22.768Z,25.14
2023-02-28T12:51:23.039Z,25.10
2023-02-28T12:53:23.016Z,25.10
2023-02-28T12:55:22.829Z,26.46
2023-02-28T12:57:23.004Z,26.99
2023-02-28T12:59:22.804Z,25.10
2023-02-28T13:01:23.080Z,25.15
2023-02-28T13:03:22.949Z,25.26
2023-02-28T13:05:23.038Z,25.26
2023-02-28T13:07:22.818Z,25.14
2023-02-28T13:09:22.788Z,25.78
2023-02-28T13:11:23.020Z,25.08
2023-02-28T13:13:23.030Z,25.12
2023-02-28T13:15:22.987Z,25.11
2023-02-28T13:17:23.011Z,25.17
2023-02-28T13:19:22.820Z,25.37
2023-02-28T13:21:23.048Z,25.42
2023-02-28T13:23:23.056Z,25.31
2023-02-28T13:25:23.091Z,25.26
2023-02-28T13:27:23.032Z,25.37
2023-02-28T13:29:23.005Z,25.46
2023-02-28T13:31:22.857Z,25.26
2023-02-28T13:33:22.866Z,25.65
2023-02-28T13:35:23.022Z,26.94
2023-02-28T13:37:22.773Z,26.93
2023-02-28T13:39:22.977Z,25.11
2023-02-28T13:41:23.032Z,25.09
2023-02-28T13:43:35.723Z,26.71
2023-02-28T13:45:23.060Z,24.90
2023-02-28T13:47:23.022Z,25.38
2023-02-28T13:49:22.923Z,25.48
2023-02-28T13:51:22.841Z,25.37
2023-02-28T13:53:22.968Z,25.37
2023-02-28T13:55:22.844Z,25.09
2023-02-28T13:57:22.891Z,26.94
2023-02-28T13:59:23.015Z,25.13
2023-02-28T14:01:23.082Z,25.11
2023-02-28T14:03:22.836Z,26.46
2023-02-28T14:05:23.089Z,25.44
2023-02-28T14:07:23.087Z,25.33
2023-02-28T14:09:22.838Z,25.10
2023-02-28T14:11:23.012Z,25.47
2023-02-28T14:13:22.961Z,25.26
2023-02-28T14:15:23.087Z,25.46
2023-02-28T14:17:22.870Z,27.09
2023-02-28T14:19:23.085Z,25.10
2023-02-28T14:21:23.098Z,27.03
2023-02-28T14:23:23.079Z,25.18
2023-02-28T14:25:22.950Z,25.47
2023-02-28T14:27:23.143Z,25.39
2023-02-28T14:29:23.109Z,25.40
2023-02-28T14:31:23.127Z,25.44
2023-02-28T14:33:23.007Z,26.94
2023-02-28T14:35:23.091Z,26.37
2023-02-28T14:37:22.930Z,25.12
2023-02-28T14:39:23.247Z,25.99
2023-02-28T14:41:23.126Z,25.18
2023-02-28T14:43:23.125Z,25.07
2023-02-28T14:45:22.943Z,25.15
2023-02-28T14:47:23.114Z,25.12
2023-02-28T14:49:23.138Z,25.10
2023-02-28T14:51:23.136Z,25.52
2023-02-28T14:53:23.069Z,24.59
2023-02-28T14:55:23.069Z,24.40
2023-02-28T14:57:23.131Z,24.19
2023-02-28T14:59:24.500Z,24.60
2023-02-28T15:01:23.234Z,25.05
2023-02-28T15:03:23.044Z,25.23
2023-02-28T15:05:23.120Z,25.37
2023-02-28T15:07:23.142Z,25.36
2023-02-28T15:09:23.191Z,25.47
2023-02-28T15:11:23.163Z,25.44
2023-02-28T15:13:23.081Z,25.40
2023-02-28T15:15:31.751Z,24.83
2023-02-28T15:17:23.143Z,24.40
2023-02-28T15:19:23.096Z,24.04
2023-02-28T15:21:22.999Z,24.23
2023-02-28T15:23:23.083Z,24.48
2023-02-28T15:25:23.123Z,24.62
2023-02-28T15:27:23.058Z,24.83
2023-02-28T15:29:23.212Z,25.23
2023-02-28T15:31:23.265Z,25.51
2023-02-28T15:33:23.262Z,25.54
2023-02-28T15:35:22.992Z,25.50
2023-02-28T15:37:23.133Z,25.53
2023-02-28T15:39:23.123Z,25.52
2023-02-28T15:41:23.205Z,25.52
2023-02-28T15:43:22.896Z,24.59
2023-02-28T15:45:23.189Z,24.17
2023-02-28T15:47:23.034Z,23.91
2023-02-28T15:49:23.154Z,24.23
2023-02-28T15:51:23.129Z,24.37
2023-02-28T15:53:23.173Z,24.52
2023-02-28T15:55:23.220Z,24.52
2023-02-28T15:57:23.213Z,24.61
2023-02-28T15:59:23.170Z,24.66
2023-02-28T16:01:23.197Z,24.61
2023-02-28T16:03:23.324Z,24.41
2023-02-28T16:05:23.172Z,24.38
2023-02-28T16:07:23.193Z,24.25
2023-02-28T16:09:23.219Z,24.20
2023-02-28T16:11:23.204Z,24.15
2023-02-28T16:13:23.241Z,24.10
2023-02-28T16:15:23.148Z,23.81
2023-02-28T16:17:23.270Z,23.65
2023-02-28T16:19:23.232Z,23.85
2023-02-28T16:21:23.151Z,24.02
2023-02-28T16:23:23.150Z,24.10
2023-02-28T16:25:23.212Z,23.92
2023-02-28T16:27:23.213Z,24.10
2023-02-28T16:29:23.216Z,24.08
2023-02-28T16:31:23.013Z,23.82
2023-02-28T16:33:23.236Z,23.93
2023-02-28T16:35:23.231Z,23.97
2023-02-28T16:37:23.175Z,24.08
2023-02-28T16:39:23.200Z,23.96
2023-02-28T16:41:22.940Z,23.96
2023-02-28T16:43:23.209Z,23.93
2023-02-28T16:45:23.277Z,23.91
2023-02-28T16:47:23.229Z,23.89
2023-02-28T16:49:23.223Z,23.89
2023-02-28T16:51:23.205Z,23.83
2023-02-28T16:53:23.237Z,23.79
2023-02-28T16:55:23.192Z,23.80
2023-02-28T16:57:23.174Z,23.73
2023-02-28T16:59:23.188Z,23.73
2023-02-28T17:01:23.335Z,23.76
2023-02-28T17:03:32.056Z,23.79
2023-02-28T17:05:23.211Z,23.79
2023-02-28T17:07:23.091Z,23.76
2023-02-28T17:09:26.341Z,23.70
2023-02-28T17:11:23.292Z,23.73
2023-02-28T17:13:23.284Z,23.73
2023-02-28T17:15:23.335Z,23.67
2023-02-28T17:17:23.296Z,23.68
2023-02-28T17:19:23.037Z,23.67
2023-02-28T17:21:23.279Z,23.63
2023-02-28T17:23:23.039Z,23.66
2023-02-28T17:25:23.270Z,23.65
2023-02-28T17:27:23.203Z,23.67
2023-02-28T17:29:23.291Z,23.66
2023-02-28T17:31:23.365Z,23.73
2023-02-28T17:33:23.315Z,23.68
2023-02-28T17:35:23.316Z,23.58
2023-02-28T17:37:23.226Z,23.57
2023-02-28T17:39:23.271Z,23.62
2023-02-28T17:41:23.332Z,23.61
2023-02-28T17:43:23.082Z,23.61
2023-02-28T17:45:23.308Z,23.65
2023-02-28T17:47:23.250Z,23.66
2023-02-28T17:49:23.310Z,23.63
2023-02-28T17:51:23.241Z,23.61
2023-02-28T17:53:23.288Z,23.59
2023-02-28T17:55:23.266Z,23.58
2023-02-28T17:57:23.320Z,23.61
2023-02-28T17:59:23.318Z,23.57
2023-02-28T18:01:23.304Z,23.61
2023-02-28T18:03:23.044Z,23.62
2023-02-28T18:05:23.287Z,23.57
2023-02-28T18:07:24.591Z,23.65
2023-02-28T18:09:23.431Z,23.63
2023-02-28T18:11:23.300Z,23.58
2023-02-28T18:13:23.332Z,23.54
2023-02-28T18:15:23.347Z,23.53
2023-02-28T18:17:23.287Z,23.57
2023-02-28T18:19:23.338Z,23.53
2023-02-28T18:21:23.355Z,23.62
2023-02-28T18:23:23.343Z,23.53
2023-02-28T18:25:23.127Z,23.59
2023-02-28T18:27:23.172Z,23.57
2023-02-28T18:29:23.199Z,23.34
2023-02-28T18:31:23.497Z,23.56
2023-02-28T18:33:23.321Z,23.53
2023-02-28T18:35:23.415Z,23.49
2023-02-28T18:37:23.372Z,23.54
2023-02-28T18:39:23.340Z,23.53
2023-02-28T18:41:23.377Z,23.57
2023-02-28T18:43:23.207Z,23.51
2023-02-28T18:45:23.253Z,23.56
2023-02-28T18:47:23.352Z,23.45
2023-02-28T18:49:23.318Z,23.56
2023-02-28T18:51:23.396Z,23.53
2023-02-28T18:53:23.359Z,23.50
2023-02-28T18:55:23.195Z,23.45
2023-02-28T18:57:23.385Z,23.49
2023-02-28T18:59:23.183Z,23.48
2023-02-28T19:01:23.372Z,26.34
2023-02-28T19:03:23.326Z,27.08
2023-02-28T19:05:23.344Z,27.17
2023-02-28T19:07:23.364Z,27.16
2023-02-28T19:09:23.352Z,27.22
2023-02-28T19:11:23.366Z,27.22
2023-02-28T19:13:23.375Z,27.22
2023-02-28T19:15:23.418Z,27.17
2023-02-28T19:17:23.408Z,27.24
2023-02-28T19:19:23.349Z,27.28
2023-02-28T19:21:23.311Z,27.27
2023-02-28T19:23:23.297Z,27.22
2023-02-28T19:25:23.523Z,25.52
2023-02-28T19:27:23.495Z,25.60
2023-02-28T19:29:23.309Z,25.60
2023-02-28T19:31:23.302Z,25.71
2023-02-28T19:33:23.339Z,25.56
2023-02-28T19:35:23.263Z,25.54
2023-02-28T19:37:23.515Z,25.74
2023-02-28T19:39:23.349Z,25.58
2023-02-28T19:41:23.268Z,25.52
2023-02-28T19:43:23.437Z,25.52
2023-02-28T19:45:23.520Z,25.54
2023-02-28T19:47:23.320Z,25.52
2023-02-28T19:49:25.370Z,25.79
2023-02-28T19:51:23.424Z,25.56
2023-02-28T19:53:23.256Z,25.63
2023-02-28T19:55:23.305Z,25.54
2023-02-28T19:57:23.406Z,25.57
2023-02-28T19:59:35.740Z,25.65
2023-02-28T20:01:23.374Z,25.61
2023-02-28T20:03:23.349Z,25.61
2023-02-28T20:05:23.371Z,25.57
2023-02-28T20:07:23.331Z,25.60
2023-02-28T20:09:23.458Z,25.60
2023-02-28T20:11:23.443Z,25.58
2023-02-28T20:13:28.130Z,25.58
2023-02-28T20:15:23.473Z,25.53
2023-02-28T20:17:23.486Z,25.56
2023-02-28T20:19:23.264Z,25.61
2023-02-28T20:21:23.521Z,25.64
2023-02-28T20:23:23.450Z,25.54
2023-02-28T20:25:23.207Z,25.60
2023-02-28T20:27:23.484Z,25.56
2023-02-28T20:29:23.459Z,25.61
2023-02-28T20:31:23.473Z,25.61
2023-02-28T20:33:23.568Z,25.56
2023-02-28T20:35:23.337Z,25.32
2023-02-28T20:37:23.440Z,25.56
2023-02-28T20:39:23.537Z,25.52
2023-02-28T20:41:23.654Z,25.52
2023-02-28T20:43:23.415Z,25.60
2023-02-28T20:45:23.420Z,25.52
2023-02-28T20:47:23.444Z,25.72
2023-02-28T20:49:23.548Z,25.52
2023-02-28T20:51:23.396Z,25.52
2023-02-28T20:53:23.505Z,25.61
2023-02-28T20:55:23.627Z,25.52
2023-02-28T20:57:23.544Z,25.61
2023-02-28T20:59:23.430Z,25.52
2023-02-28T21:01:23.592Z,25.52
2023-02-28T21:03:23.482Z,25.64
2023-02-28T21:05:23.524Z,25.54
2023-02-28T21:07:23.497Z,25.72
2023-02-28T21:09:23.484Z,25.60
2023-02-28T21:11:23.284Z,25.60
2023-02-28T21:13:23.523Z,25.60
2023-02-28T21:15:23.516Z,25.61
2023-02-28T21:17:23.589Z,25.64
2023-02-28T21:19:23.535Z,25.57
2023-02-28T21:21:23.564Z,25.58
2023-02-28T21:23:23.669Z,25.50
2023-02-28T21:25:23.489Z,25.52
2023-02-28T21:27:23.691Z,25.58
2023-02-28T21:29:24.431Z,25.58
2023-02-28T21:31:23.550Z,25.64
2023-02-28T21:33:23.630Z,25.54
2023-02-28T21:35:23.435Z,25.60
2023-02-28T21:37:23.543Z,25.58
2023-02-28T21:39:23.542Z,25.65
2023-02-28T21:41:23.514Z,25.60
2023-02-28T21:43:23.573Z,25.54
2023-02-28T21:45:23.537Z,25.54
2023-02-28T21:47:23.246Z,25.56
2023-02-28T21:49:23.640Z,25.54
2023-02-28T21:51:23.335Z,25.58
2023-02-28T21:53:23.731Z,25.52
2023-02-28T21:55:23.149Z,25.56
2023-02-28T21:57:23.710Z,25.58
2023-02-28T21:59:23.543Z,25.36
2023-02-28T22:01:23.584Z,25.50
2023-02-28T22:03:23.430Z,25.58
2023-02-28T22:05:23.569Z,25.52
2023-02-28T22:07:23.551Z,25.54
2023-02-28T22:09:23.604Z,25.60
2023-02-28T22:11:23.484Z,25.54
2023-02-28T22:13:23.522Z,25.63
2023-02-28T22:15:23.501Z,25.52
2023-02-28T22:17:23.577Z,25.60
2023-02-28T22:19:23.542Z,25.56
2023-02-28T22:21:23.496Z,25.57
2023-02-28T22:23:23.570Z,25.60
2023-02-28T22:25:23.413Z,25.57
2023-02-28T22:27:23.522Z,25.57
2023-02-28T22:29:23.597Z,25.52
2023-02-28T22:31:23.666Z,25.65
2023-02-28T22:33:23.608Z,25.60
2023-02-28T22:35:23.637Z,25.52
2023-02-28T22:37:23.595Z,25.61
2023-02-28T22:39:23.597Z,25.52
2023-02-28T22:41:23.601Z,25.60
2023-02-28T22:43:23.561Z,25.56
2023-02-28T22:45:23.542Z,25.52
2023-02-28T22:47:23.556Z,25.54
2023-02-28T22:49:23.565Z,25.54
2023-02-28T22:51:23.602Z,25.57
2023-02-28T22:53:23.640Z,25.63
2023-02-28T22:55:23.316Z,25.57
2023-02-28T22:57:23.620Z,25.57
2023-02-28T22:59:23.595Z,25.60
2023-02-28T23:01:23.655Z,25.52
2023-02-28T23:03:23.556Z,25.52
2023-02-28T23:05:23.563Z,25.56
2023-02-28T23:07:23.556Z,25.55
2023-02-28T23:09:23.508Z,25.60
2023-02-28T23:11:23.574Z,25.54
2023-02-28T23:13:23.562Z,25.57
2023-02-28T23:15:23.577Z,25.58
2023-02-28T23:17:23.632Z,25.52
2023-02-28T23:19:23.636Z,25.56
2023-02-28T23:21:23.323Z,25.65
2023-02-28T23:23:23.652Z,25.55
2023-02-28T23:25:23.625Z,25.60
2023-02-28T23:27:23.592Z,25.65
2023-02-28T23:29:23.419Z,25.58
2023-02-28T23:31:23.654Z,25.52
2023-02-28T23:33:23.371Z,25.52
2023-02-28T23:35:23.668Z,25.58
2023-02-28T23:37:23.709Z,25.63
2023-02-28T23:39:23.526Z,25.58
2023-02-28T23:41:23.626Z,25.55
2023-02-28T23:43:23.673Z,25.53
2023-02-28T23:45:23.684Z,25.52
2023-02-28T23:47:23.675Z,25.61
2023-02-28T23:49:23.669Z,25.58
2023-02-28T23:51:23.597Z,25.29
2023-02-28T23:53:23.689Z,25.54
2023-02-28T23:55:23.696Z,25.52
2023-02-28T23:57:23.605Z,25.53
2023-02-28T23:59:23.659Z,25.54
